This is the latest recevied weather packets stored in our database for station/object HA9OZD-19. If no packets are shown the sender has not sent any weather packets the latest 10 day(s).
| Time | Temp. | Humidity | Pressure | Rain* | Wind** | Luminosity | Snow |
|---|---|---|---|---|---|---|---|
| 1788139438 | 15.56° C | 58% | 1035.2 hPa | - | - | - | - |
| 1788135898 | 16.67° C | 55% | 1035.2 hPa | - | - | - | - |
| 1788132357 | 17.22° C | 53% | 1035.2 hPa | - | - | - | - |
| 1788128818 | 17.78° C | 52% | 1035.2 hPa | - | - | - | - |
| 1788125278 | 18.33° C | 49% | 1035.1 hPa | - | - | - | - |
| 1788121738 | 20.56° C | 43% | 1034.9 hPa | - | - | - | - |
| 1788118198 | 21.67° C | 39% | 1034.7 hPa | - | - | - | - |
| 1788107576 | 29.44° C | 26% | 1033.8 hPa | - | - | - | - |
| 1788104036 | 32.78° C | 22% | 1033.9 hPa | - | - | - | - |
| 1788100496 | 34.44° C | 21% | 1034.1 hPa | - | - | - | - |
| 1788096956 | 35° C | 19% | 1034.5 hPa | - | - | - | - |
| 1788093416 | 35° C | 21% | 1035 hPa | - | - | - | - |
| 1788089876 | 33.89° C | 23% | 1035.3 hPa | - | - | - | - |
| 1788088439 | 34.44° C | 22% | 1035.4 hPa | - | - | - | - |
| 1788084898 | 33.89° C | 25% | 1035.9 hPa | - | - | - | - |
| 1788081358 | 32.22° C | 32% | 1036.2 hPa | - | - | - | - |
| 1788077818 | 28.33° C | 39% | 1036.4 hPa | - | - | - | - |
| 1788074278 | 25.56° C | 45% | 1036.2 hPa | - | - | - | - |
| 1788070738 | 18.89° C | 60% | 1036.2 hPa | - | - | - | - |
| 1788067198 | 16.67° C | 73% | 1035.7 hPa | - | - | - | - |
| 1788063658 | 12.78° C | 74% | 1035.6 hPa | - | - | - | - |
| 1788060117 | 12.78° C | 71% | 1035.3 hPa | - | - | - | - |
| 1788056577 | 13.33° C | 68% | 1035.2 hPa | - | - | - | - |
| 1788053037 | 13.33° C | 67% | 1035 hPa | - | - | - | - |
| 1788049497 | 15.56° C | 62% | 1034.8 hPa | - | - | - | - |
* Rain since midnight (hover to see other rain measurements)
** Current wind speed in m/s (hover to see current wind gust speed)